Wetterdaten: Woche 31.03.14 - 06.04.14 (KW14)
Datum Zeit Temperatur Luftfeuchte Luftdruck Niederschlag Windrichtung Sonnenschein Solar Wind
31.03.2014 00:00 7,1 C 70 % 1013,4 hPa 0,0 l/m N 0,00 h 0 W/m 0,0 km/h (0 Bft)
31.03.2014 01:00 6,0 C 75 % 1013,3 hPa 0,0 l/m N 0,00 h 0 W/m 0,0 km/h (0 Bft)
31.03.2014 02:00 4,7 C 81 % 1013,4 hPa 0,0 l/m O 0,00 h 0 W/m 0,9 km/h (0 Bft)
31.03.2014 03:00 4,2 C 85 % 1013,1 hPa 0,0 l/m N 0,00 h 0 W/m 0,1 km/h (0 Bft)
31.03.2014 04:00 3,3 C 87 % 1013,1 hPa 0,0 l/m N 0,00 h 0 W/m 0,0 km/h (0 Bft)
31.03.2014 05:00 2,9 C 88 % 1013,1 hPa 0,0 l/m N 0,00 h 0 W/m 0,0 km/h (0 Bft)
31.03.2014 06:00 2,4 C 89 % 1013,3 hPa 0,0 l/m N 0,00 h 0 W/m 0,0 km/h (0 Bft)
31.03.2014 07:00 2,1 C 91 % 1013,6 hPa 0,0 l/m N 0,00 h 21 W/m 0,0 km/h (0 Bft)
31.03.2014 08:00 2,4 C 91 % 1013,8 hPa 0,0 l/m N 0,00 h 89 W/m 0,1 km/h (0 Bft)
31.03.2014 09:00 4,3 C 90 % 1014,0 hPa 0,0 l/m N 0,00 h 167 W/m 1,2 km/h (1 Bft)
31.03.2014 10:00 8,8 C 78 % 1014,1 hPa 0,0 l/m S 0,17 h 278 W/m 7,4 km/h (2 Bft)
31.03.2014 11:00 11,7 C 68 % 1014,2 hPa 0,0 l/m S 1,00 h 414 W/m 8,3 km/h (2 Bft)
31.03.2014 12:00 14,1 C 63 % 1014,0 hPa 0,0 l/m S-SW 1,00 h 519 W/m 7,6 km/h (2 Bft)
31.03.2014 13:00 16,6 C 54 % 1013,3 hPa 0,0 l/m S-SW 1,00 h 687 W/m 8,7 km/h (2 Bft)
31.03.2014 14:00 17,9 C 46 % 1012,9 hPa 0,0 l/m S-SW 0,83 h 523 W/m 11,3 km/h (2 Bft)
31.03.2014 15:00 17,2 C 46 % 1012,3 hPa 0,0 l/m SW 0,58 h 356 W/m 9,0 km/h (2 Bft)
31.03.2014 16:00 18,2 C 44 % 1011,7 hPa 0,0 l/m SW 1,00 h 415 W/m 6,5 km/h (2 Bft)
31.03.2014 17:00 18,7 C 43 % 1011,3 hPa 0,0 l/m S 1,00 h 301 W/m 5,1 km/h (1 Bft)
31.03.2014 18:00 18,3 C 44 % 1011,3 hPa 0,0 l/m SO 0,92 h 159 W/m 3,9 km/h (1 Bft)
31.03.2014 19:00 16,0 C 53 % 1011,4 hPa 0,0 l/m N 0,00 h 23 W/m 0,8 km/h (0 Bft)
31.03.2014 20:00 12,5 C 64 % 1011,6 hPa 0,0 l/m N 0,00 h 0 W/m 1,1 km/h (0 Bft)
31.03.2014 21:00 10,5 C 72 % 1012,1 hPa 0,0 l/m N 0,00 h 0 W/m 1,9 km/h (1 Bft)
31.03.2014 22:00 9,7 C 74 % 1012,2 hPa 0,0 l/m N 0,00 h 0 W/m 2,7 km/h (1 Bft)
31.03.2014 23:00 8,9 C 77 % 1012,1 hPa 0,0 l/m N 0,00 h 0 W/m 2,1 km/h (1 Bft)
01.04.2014 00:00 8,2 C 79 % 1012,2 hPa 0,0 l/m N 0,00 h 0 W/m 3,1 km/h (1 Bft)
01.04.2014 01:00 7,6 C 81 % 1012,5 hPa 0,0 l/m N 0,00 h 0 W/m 1,9 km/h (1 Bft)
01.04.2014 02:00 6,3 C 84 % 1012,5 hPa 0,0 l/m N 0,00 h 0 W/m 0,0 km/h (0 Bft)
01.04.2014 03:00 5,1 C 89 % 1012,4 hPa 0,0 l/m N 0,00 h 0 W/m 0,0 km/h (0 Bft)
01.04.2014 04:00 4,8 C 91 % 1012,0 hPa 0,0 l/m N 0,00 h 0 W/m 0,0 km/h (0 Bft)
01.04.2014 05:00 4,1 C 91 % 1011,9 hPa 0,0 l/m N 0,00 h 0 W/m 0,0 km/h (0 Bft)
01.04.2014 06:00 4,1 C 92 % 1011,9 hPa 0,0 l/m N 0,00 h 0 W/m 0,0 km/h (0 Bft)
01.04.2014 07:00 3,8 C 93 % 1011,9 hPa 0,0 l/m N 0,00 h 26 W/m 0,0 km/h (0 Bft)
01.04.2014 08:00 4,5 C 93 % 1012,3 hPa 0,0 l/m N 0,00 h 67 W/m 0,0 km/h (0 Bft)
01.04.2014 09:00 7,0 C 88 % 1012,1 hPa 0,0 l/m S-SO 0,58 h 236 W/m 4,0 km/h (1 Bft)
01.04.2014 10:00 10,2 C 77 % 1012,0 hPa 0,0 l/m S-SW 0,42 h 286 W/m 8,6 km/h (2 Bft)
01.04.2014 11:00 12,8 C 69 % 1011,7 hPa 0,0 l/m S-SW 1,00 h 555 W/m 9,4 km/h (2 Bft)
01.04.2014 12:00 15,7 C 61 % 1011,0 hPa 0,0 l/m S-SW 1,00 h 648 W/m 9,0 km/h (2 Bft)
01.04.2014 13:00 17,8 C 51 % 1010,2 hPa 0,0 l/m S-SW 1,00 h 693 W/m 9,8 km/h (2 Bft)
01.04.2014 14:00 19,1 C 44 % 1009,4 hPa 0,0 l/m SO 1,00 h 685 W/m 8,4 km/h (2 Bft)
01.04.2014 15:00 19,4 C 41 % 1009,0 hPa 0,0 l/m SW 1,00 h 576 W/m 7,2 km/h (2 Bft)
01.04.2014 16:00 19,3 C 41 % 1008,6 hPa 0,0 l/m S-SW 1,00 h 391 W/m 4,5 km/h (1 Bft)
01.04.2014 17:00 19,2 C 40 % 1008,3 hPa 0,0 l/m SW 1,00 h 274 W/m 4,8 km/h (1 Bft)
01.04.2014 18:00 18,1 C 41 % 1008,4 hPa 0,0 l/m SW 0,33 h 111 W/m 4,8 km/h (1 Bft)
01.04.2014 19:00 16,1 C 49 % 1008,6 hPa 0,0 l/m N 0,00 h 20 W/m 2,7 km/h (1 Bft)
01.04.2014 20:00 13,5 C 60 % 1008,8 hPa 0,0 l/m N 0,00 h 0 W/m 0,3 km/h (0 Bft)
01.04.2014 21:00 11,7 C 68 % 1009,1 hPa 0,0 l/m N 0,00 h 0 W/m 0,0 km/h (0 Bft)
01.04.2014 22:00 10,7 C 73 % 1009,1 hPa 0,0 l/m N 0,00 h 0 W/m 0,1 km/h (0 Bft)
01.04.2014 23:00 9,9 C 76 % 1009,1 hPa 0,0 l/m N 0,00 h 0 W/m 0,0 km/h (0 Bft)
02.04.2014 00:00 9,1 C 80 % 1009,1 hPa 0,0 l/m N 0,00 h 0 W/m 0,0 km/h (0 Bft)
02.04.2014 01:00 8,5 C 82 % 1009,3 hPa 0,0 l/m N 0,00 h 0 W/m 0,0 km/h (0 Bft)
02.04.2014 02:00 7,2 C 87 % 1009,3 hPa 0,0 l/m N 0,00 h 0 W/m 0,0 km/h (0 Bft)
02.04.2014 03:00 6,1 C 90 % 1009,2 hPa 0,0 l/m N 0,00 h 0 W/m 0,0 km/h (0 Bft)
02.04.2014 04:00 5,5 C 91 % 1009,1 hPa 0,0 l/m N 0,00 h 0 W/m 0,0 km/h (0 Bft)
02.04.2014 05:00 4,9 C 92 % 1009,1 hPa 0,0 l/m N 0,00 h 0 W/m 0,0 km/h (0 Bft)
02.04.2014 06:00 4,4 C 94 % 1009,1 hPa 0,0 l/m N 0,00 h 0 W/m 0,0 km/h (0 Bft)
02.04.2014 07:00 4,4 C 94 % 1009,0 hPa 0,0 l/m N 0,00 h 26 W/m 0,0 km/h (0 Bft)
02.04.2014 08:00 6,4 C 89 % 1009,0 hPa 0,0 l/m N 0,50 h 141 W/m 0,0 km/h (0 Bft)
02.04.2014 09:00 10,5 C 76 % 1008,7 hPa 0,0 l/m N 1,00 h 313 W/m 0,0 km/h (0 Bft)
02.04.2014 10:00 13,7 C 63 % 1008,5 hPa 0,0 l/m N 1,00 h 481 W/m 0,0 km/h (0 Bft)
02.04.2014 11:00 16,0 C 56 % 1007,9 hPa 0,0 l/m N 1,00 h 613 W/m 0,0 km/h (0 Bft)
02.04.2014 12:00 17,7 C 51 % 1007,2 hPa 0,0 l/m N 1,00 h 706 W/m 0,0 km/h (0 Bft)
02.04.2014 13:00 19,2 C 46 % 1006,7 hPa 0,0 l/m N 1,00 h 737 W/m 0,0 km/h (0 Bft)
02.04.2014 14:00 20,7 C 36 % 1006,2 hPa 0,0 l/m N 1,00 h 695 W/m 0,0 km/h (0 Bft)
02.04.2014 15:00 21,3 C 34 % 1005,3 hPa 0,0 l/m N 1,00 h 626 W/m 0,0 km/h (0 Bft)
02.04.2014 16:00 21,2 C 34 % 1004,5 hPa 0,0 l/m N 1,00 h 518 W/m 0,0 km/h (0 Bft)
02.04.2014 17:00 20,2 C 33 % 1004,3 hPa 0,0 l/m N 0,67 h 241 W/m 0,0 km/h (0 Bft)
02.04.2014 18:00 19,2 C 34 % 1004,3 hPa 0,0 l/m N 0,33 h 120 W/m 0,0 km/h (0 Bft)
02.04.2014 19:00 17,1 C 43 % 1004,3 hPa 0,0 l/m N 0,00 h 25 W/m 0,3 km/h (0 Bft)
02.04.2014 20:00 13,8 C 54 % 1004,3 hPa 0,0 l/m N 0,00 h 0 W/m 0,1 km/h (0 Bft)
02.04.2014 21:00 11,6 C 61 % 1004,6 hPa 0,0 l/m N 0,00 h 0 W/m 0,0 km/h (0 Bft)
02.04.2014 22:00 10,2 C 68 % 1004,4 hPa 0,0 l/m N 0,00 h 0 W/m 0,0 km/h (0 Bft)
02.04.2014 23:00 8,8 C 72 % 1004,5 hPa 0,0 l/m N 0,00 h 0 W/m 0,1 km/h (0 Bft)
03.04.2014 00:00 8,0 C 77 % 1004,5 hPa 0,0 l/m N 0,00 h 0 W/m 0,0 km/h (0 Bft)
03.04.2014 01:00 7,4 C 81 % 1004,4 hPa 0,0 l/m N 0,00 h 0 W/m 0,0 km/h (0 Bft)
03.04.2014 02:00 6,9 C 82 % 1004,3 hPa 0,0 l/m N 0,00 h 0 W/m 0,0 km/h (0 Bft)
03.04.2014 03:00 6,3 C 82 % 1004,2 hPa 0,0 l/m N 0,00 h 0 W/m 0,0 km/h (0 Bft)
03.04.2014 04:00 6,0 C 82 % 1004,2 hPa 0,0 l/m N 0,00 h 0 W/m 0,1 km/h (0 Bft)
03.04.2014 05:00 4,8 C 87 % 1004,0 hPa 0,0 l/m N 0,00 h 0 W/m 0,0 km/h (0 Bft)
03.04.2014 06:00 5,7 C 85 % 1003,8 hPa 0,0 l/m N 0,00 h 0 W/m 0,3 km/h (0 Bft)
03.04.2014 07:00 6,3 C 84 % 1004,0 hPa 0,0 l/m N-NW 0,00 h 30 W/m 5,9 km/h (2 Bft)
03.04.2014 08:00 8,2 C 78 % 1004,3 hPa 0,0 l/m N-NW 0,00 h 83 W/m 4,7 km/h (1 Bft)
03.04.2014 09:00 10,5 C 75 % 1004,1 hPa 0,0 l/m N 0,83 h 263 W/m 1,7 km/h (1 Bft)
03.04.2014 10:00 14,3 C 62 % 1003,7 hPa 0,0 l/m N-NW 1,00 h 432 W/m 4,4 km/h (1 Bft)
03.04.2014 11:00 17,2 C 54 % 1003,5 hPa 0,0 l/m N-NW 0,67 h 434 W/m 6,0 km/h (2 Bft)
03.04.2014 12:00 18,3 C 48 % 1003,3 hPa 0,0 l/m NW 0,00 h 205 W/m 2,7 km/h (1 Bft)
03.04.2014 13:00 20,5 C 39 % 1002,9 hPa 0,0 l/m O-NO 0,75 h 556 W/m 9,1 km/h (2 Bft)
03.04.2014 14:00 21,9 C 33 % 1002,6 hPa 0,0 l/m O-SO 0,92 h 542 W/m 18,0 km/h (3 Bft)
03.04.2014 15:00 21,5 C 32 % 1002,4 hPa 0,0 l/m O-SO 0,25 h 284 W/m 19,3 km/h (3 Bft)
03.04.2014 16:00 20,1 C 36 % 1002,3 hPa 0,0 l/m SO 0,00 h 125 W/m 11,0 km/h (2 Bft)
03.04.2014 17:00 18,2 C 42 % 1002,2 hPa 0,0 l/m SW 0,00 h 49 W/m 5,6 km/h (1 Bft)
03.04.2014 18:00 17,1 C 44 % 1002,2 hPa 0,0 l/m N 0,00 h 23 W/m 1,2 km/h (1 Bft)
03.04.2014 19:00 15,1 C 52 % 1002,3 hPa 0,0 l/m N 0,00 h 9 W/m 0,7 km/h (0 Bft)
03.04.2014 20:00 13,3 C 57 % 1002,8 hPa 0,0 l/m N 0,00 h 0 W/m 0,4 km/h (0 Bft)
03.04.2014 21:00 12,3 C 58 % 1003,1 hPa 0,0 l/m N 0,00 h 0 W/m 1,1 km/h (0 Bft)
03.04.2014 22:00 11,6 C 59 % 1003,0 hPa 0,0 l/m N 0,00 h 0 W/m 0,1 km/h (0 Bft)
03.04.2014 23:00 10,9 C 62 % 1002,9 hPa 0,0 l/m N 0,00 h 0 W/m 0,0 km/h (0 Bft)
04.04.2014 00:00 10,3 C 65 % 1002,9 hPa 0,0 l/m N 0,00 h 0 W/m 0,1 km/h (0 Bft)
04.04.2014 01:00 9,9 C 67 % 1002,8 hPa 0,0 l/m N 0,00 h 0 W/m 0,4 km/h (0 Bft)
04.04.2014 02:00 9,6 C 69 % 1002,8 hPa 0,0 l/m N 0,00 h 0 W/m 0,4 km/h (0 Bft)
04.04.2014 03:00 9,3 C 72 % 1002,7 hPa 0,0 l/m N 0,00 h 0 W/m 0,1 km/h (0 Bft)
04.04.2014 04:00 8,8 C 77 % 1002,7 hPa 0,0 l/m N 0,00 h 0 W/m 0,1 km/h (0 Bft)
04.04.2014 05:00 8,1 C 80 % 1002,6 hPa 0,0 l/m N 0,00 h 0 W/m 0,4 km/h (0 Bft)
04.04.2014 06:00 7,7 C 83 % 1002,6 hPa 0,0 l/m N 0,00 h 0 W/m 0,1 km/h (0 Bft)
04.04.2014 07:00 7,3 C 86 % 1002,7 hPa 0,0 l/m N 0,00 h 15 W/m 0,4 km/h (0 Bft)
04.04.2014 08:00 8,0 C 86 % 1002,9 hPa 0,0 l/m N 0,00 h 49 W/m 0,0 km/h (0 Bft)
04.04.2014 09:00 9,5 C 84 % 1003,1 hPa 0,0 l/m N 0,00 h 95 W/m 0,4 km/h (0 Bft)
04.04.2014 10:00 11,4 C 75 % 1003,4 hPa 0,0 l/m N 0,00 h 154 W/m 0,8 km/h (0 Bft)
04.04.2014 11:00 13,0 C 67 % 1003,4 hPa 0,0 l/m SW 0,00 h 199 W/m 1,9 km/h (1 Bft)
04.04.2014 12:00 14,2 C 61 % 1003,6 hPa 0,0 l/m SW 0,00 h 234 W/m 2,5 km/h (1 Bft)
04.04.2014 13:00 14,7 C 58 % 1003,8 hPa 0,0 l/m SW 0,00 h 187 W/m 6,8 km/h (2 Bft)
04.04.2014 14:00 14,9 C 58 % 1003,6 hPa 0,0 l/m SW 0,00 h 224 W/m 2,5 km/h (1 Bft)
04.04.2014 15:00 15,7 C 55 % 1003,6 hPa 0,0 l/m SW 0,00 h 186 W/m 5,1 km/h (1 Bft)
04.04.2014 16:00 15,3 C 60 % 1003,5 hPa 0,0 l/m SW 0,00 h 137 W/m 4,8 km/h (1 Bft)
04.04.2014 17:00 15,0 C 64 % 1003,7 hPa 0,0 l/m SW 0,00 h 92 W/m 4,0 km/h (1 Bft)
04.04.2014 18:00 14,5 C 67 % 1004,0 hPa 0,0 l/m N 0,00 h 50 W/m 0,8 km/h (0 Bft)
04.04.2014 19:00 13,2 C 73 % 1004,5 hPa 0,0 l/m N 0,00 h 15 W/m 0,9 km/h (0 Bft)
04.04.2014 20:00 11,6 C 80 % 1005,1 hPa 0,0 l/m N 0,00 h 0 W/m 0,0 km/h (0 Bft)
04.04.2014 21:00 10,2 C 84 % 1005,7 hPa 0,0 l/m N 0,00 h 0 W/m 0,8 km/h (0 Bft)
04.04.2014 22:00 9,2 C 87 % 1006,1 hPa 0,0 l/m N 0,00 h 0 W/m 0,0 km/h (0 Bft)
04.04.2014 23:00 8,2 C 90 % 1006,4 hPa 0,0 l/m N 0,00 h 0 W/m 0,0 km/h (0 Bft)
05.04.2014 00:00 7,5 C 92 % 1006,7 hPa 0,0 l/m N 0,00 h 0 W/m 0,4 km/h (0 Bft)
05.04.2014 01:00 7,1 C 92 % 1007,0 hPa 0,0 l/m N 0,00 h 0 W/m 0,1 km/h (0 Bft)
05.04.2014 02:00 6,9 C 92 % 1007,2 hPa 0,0 l/m N 0,00 h 0 W/m 0,8 km/h (0 Bft)
05.04.2014 03:00 6,4 C 93 % 1007,5 hPa 0,0 l/m N 0,00 h 0 W/m 1,2 km/h (1 Bft)
05.04.2014 04:00 6,3 C 94 % 1007,9 hPa 0,0 l/m SW 0,00 h 0 W/m 1,2 km/h (1 Bft)
05.04.2014 05:00 5,9 C 95 % 1008,4 hPa 0,0 l/m N 0,00 h 0 W/m 0,1 km/h (0 Bft)
05.04.2014 06:00 6,0 C 95 % 1008,9 hPa 0,0 l/m N 0,00 h 0 W/m 0,5 km/h (0 Bft)
05.04.2014 07:00 6,6 C 96 % 1009,6 hPa 0,0 l/m N 0,00 h 20 W/m 0,3 km/h (0 Bft)
05.04.2014 08:00 7,6 C 96 % 1010,4 hPa 0,0 l/m N 0,00 h 64 W/m 1,7 km/h (1 Bft)
05.04.2014 09:00 9,4 C 93 % 1011,0 hPa 0,0 l/m SW 0,00 h 96 W/m 3,2 km/h (1 Bft)
05.04.2014 10:00 11,2 C 88 % 1011,4 hPa 0,0 l/m SW 0,00 h 150 W/m 5,8 km/h (1 Bft)
05.04.2014 11:00 12,8 C 82 % 1011,8 hPa 0,0 l/m W-NW 0,00 h 156 W/m 11,7 km/h (2 Bft)
05.04.2014 12:00 13,2 C 80 % 1012,1 hPa 0,0 l/m W-NW 0,00 h 103 W/m 11,2 km/h (2 Bft)
05.04.2014 13:00 13,3 C 82 % 1012,4 hPa 0,0 l/m S-SW 0,00 h 111 W/m 11,1 km/h (2 Bft)
05.04.2014 14:00 13,1 C 85 % 1012,7 hPa 0,0 l/m SW 0,00 h 101 W/m 13,2 km/h (3 Bft)
05.04.2014 15:00 13,3 C 84 % 1012,8 hPa 0,0 l/m W-SW 0,00 h 113 W/m 12,2 km/h (2 Bft)
05.04.2014 16:00 13,7 C 82 % 1013,0 hPa 0,0 l/m SW 0,00 h 48 W/m 8,8 km/h (2 Bft)
05.04.2014 17:00 13,8 C 81 % 1013,4 hPa 0,0 l/m W 0,00 h 68 W/m 6,0 km/h (2 Bft)
05.04.2014 18:00 13,2 C 86 % 1013,8 hPa 0,0 l/m W 0,00 h 49 W/m 7,2 km/h (2 Bft)
05.04.2014 19:00 12,2 C 89 % 1014,3 hPa 0,0 l/m W-SW 0,00 h 9 W/m 7,1 km/h (2 Bft)
05.04.2014 20:00 11,7 C 92 % 1015,1 hPa 0,0 l/m N 0,00 h 0 W/m 1,3 km/h (1 Bft)
05.04.2014 21:00 11,4 C 93 % 1015,7 hPa 0,0 l/m N 0,00 h 0 W/m 0,3 km/h (0 Bft)
05.04.2014 22:00 10,9 C 92 % 1016,1 hPa 0,0 l/m W-SW 0,00 h 0 W/m 3,5 km/h (1 Bft)
05.04.2014 23:00 9,9 C 93 % 1016,5 hPa 0,0 l/m N 0,00 h 0 W/m 0,3 km/h (0 Bft)
06.04.2014 00:00 9,4 C 95 % 1017,0 hPa 0,0 l/m N 0,00 h 0 W/m 0,1 km/h (0 Bft)
06.04.2014 01:00 9,4 C 96 % 1017,1 hPa 0,0 l/m N 0,00 h 0 W/m 0,7 km/h (0 Bft)
06.04.2014 02:00 9,3 C 96 % 1017,1 hPa 0,0 l/m N 0,00 h 0 W/m 0,0 km/h (0 Bft)
06.04.2014 03:00 9,3 C 96 % 1016,9 hPa 0,0 l/m N 0,00 h 0 W/m 0,0 km/h (0 Bft)
06.04.2014 04:00 9,2 C 97 % 1016,9 hPa 0,0 l/m N 0,00 h 0 W/m 0,0 km/h (0 Bft)
06.04.2014 05:00 9,2 C 97 % 1017,0 hPa 0,0 l/m N 0,00 h 0 W/m 0,4 km/h (0 Bft)
06.04.2014 06:00 9,3 C 97 % 1017,3 hPa 0,0 l/m N 0,00 h 0 W/m 0,0 km/h (0 Bft)
06.04.2014 07:00 9,4 C 98 % 1017,6 hPa 0,0 l/m N 0,00 h 10 W/m 0,0 km/h (0 Bft)
06.04.2014 08:00 9,8 C 98 % 1018,0 hPa 0,0 l/m W-SW 0,00 h 35 W/m 2,5 km/h (1 Bft)
06.04.2014 09:00 10,1 C 98 % 1018,4 hPa 0,2 l/m N 0,00 h 23 W/m 0,7 km/h (0 Bft)
06.04.2014 10:00 10,5 C 98 % 1018,8 hPa 0,4 l/m W-SW 0,00 h 65 W/m 1,5 km/h (1 Bft)
06.04.2014 11:00 10,9 C 97 % 1018,9 hPa 1,0 l/m W-SW 0,00 h 126 W/m 2,8 km/h (1 Bft)
06.04.2014 12:00 11,7 C 93 % 1018,7 hPa 0,0 l/m N 0,00 h 191 W/m 2,3 km/h (1 Bft)
06.04.2014 13:00 13,2 C 86 % 1018,4 hPa 0,0 l/m W-SW 0,25 h 413 W/m 4,0 km/h (1 Bft)
06.04.2014 14:00 14,4 C 80 % 1018,2 hPa 0,0 l/m W-SW 0,33 h 411 W/m 4,4 km/h (1 Bft)
06.04.2014 15:00 15,5 C 72 % 1017,5 hPa 0,0 l/m W-SW 0,42 h 348 W/m 4,7 km/h (1 Bft)
06.04.2014 16:00 17,2 C 59 % 1017,0 hPa 0,0 l/m W-SW 1,00 h 537 W/m 9,1 km/h (2 Bft)
06.04.2014 17:00 17,2 C 61 % 1016,8 hPa 0,0 l/m SW 0,92 h 380 W/m 9,1 km/h (2 Bft)
06.04.2014 18:00 16,9 C 61 % 1016,7 hPa 0,0 l/m W-SW 1,00 h 213 W/m 6,3 km/h (2 Bft)
06.04.2014 19:00 15,0 C 70 % 1016,9 hPa 0,0 l/m N 0,08 h 29 W/m 1,1 km/h (0 Bft)
06.04.2014 20:00 13,0 C 77 % 1017,5 hPa 0,0 l/m N 0,00 h 0 W/m 1,3 km/h (1 Bft)
06.04.2014 21:00 11,8 C 80 % 1018,1 hPa 0,0 l/m N 0,00 h 0 W/m 0,0 km/h (0 Bft)
06.04.2014 22:00 10,4 C 84 % 1018,3 hPa 0,0 l/m N 0,00 h 0 W/m 0,0 km/h (0 Bft)
06.04.2014 23:00 9,3 C 86 % 1018,5 hPa 0,0 l/m N 0,00 h 0 W/m 0,0 km/h (0 Bft)
Min-Datum _ 31.03.14 02.04.14 03.04.14 - - - - 31.03.14
_ Min-Zeit 08:10 15:45 17:35 - - - - 00:00
Minimum _ 1,9 C 31 % 1002,1 hPa - - - - 0,0 km/h (0 Bft)
Max-Datum _ 03.04.14 06.04.14 06.04.14 06.04.14 - 31.03.14 06.04.14 03.04.14
_ Max-Zeit 14:15 07:20 10:45 11:20 - 10:50 14:35 15:00
Maximum _ 22,2 C 98 % 1018,9 hPa 1,0 l/m - 0,08 h 798 W/m 25,7 km/h
O-SO (4 Bft)
Durchschnitt _ 11,3 C 74 % 1009,5 hPa #1,6 l/m SW #33:45 h 245 W/m 2,6 km/h (1 Bft)